createdAt,value
2022-08-17T00:00:12.795Z,3.38
2022-08-17T00:03:00.970Z,3.75
2022-08-17T00:05:34.843Z,4.00
2022-08-17T00:08:02.871Z,3.80
2022-08-17T00:10:32.405Z,3.50
2022-08-17T00:13:00.695Z,3.88
2022-08-17T00:15:28.573Z,3.63
2022-08-17T00:17:56.320Z,3.53
2022-08-17T00:20:34.692Z,3.88
2022-08-17T00:23:10.727Z,3.78
2022-08-17T00:25:39.035Z,3.95
2022-08-17T00:28:07.670Z,4.00
2022-08-17T00:30:52.868Z,4.05
2022-08-17T00:33:25.223Z,4.05
2022-08-17T00:35:54.095Z,4.13
2022-08-17T00:38:24.083Z,4.28
2022-08-17T00:40:55.946Z,4.35
2022-08-17T00:43:30.238Z,3.92
2022-08-17T00:45:59.497Z,4.85
2022-08-17T00:48:29.832Z,4.63
2022-08-17T00:51:03.841Z,4.30
2022-08-17T00:53:35.400Z,4.65
2022-08-17T00:56:06.958Z,4.28
2022-08-17T00:58:37.255Z,3.83
2022-08-17T01:01:06.038Z,4.50
2022-08-17T01:03:35.868Z,5.07
2022-08-17T01:06:04.666Z,4.20
2022-08-17T01:08:34.342Z,4.75
2022-08-17T01:11:04.039Z,4.57
2022-08-17T01:13:40.420Z,4.55
2022-08-17T01:16:15.796Z,4.55
2022-08-17T01:18:44.772Z,4.43
2022-08-17T01:21:22.255Z,4.45
2022-08-17T01:23:51.491Z,4.85
2022-08-17T01:26:19.629Z,5.03
2022-08-17T01:28:55.030Z,4.88
2022-08-17T01:31:26.021Z,5.85
2022-08-17T01:33:54.448Z,5.78
2022-08-17T01:36:22.381Z,5.63
2022-08-17T01:38:51.604Z,5.90
2022-08-17T01:41:21.961Z,5.43
2022-08-17T01:43:54.871Z,5.18
2022-08-17T01:46:26.667Z,5.00
2022-08-17T01:48:55.021Z,4.15
2022-08-17T01:51:23.439Z,4.97
2022-08-17T01:53:57.349Z,4.63
2022-08-17T01:56:26.851Z,6.05
2022-08-17T01:58:55.084Z,5.05
2022-08-17T02:01:26.360Z,6.60
2022-08-17T02:04:00.462Z,5.40
2022-08-17T02:06:31.475Z,5.82
2022-08-17T02:09:16.990Z,4.80
2022-08-17T02:11:46.290Z,5.22
2022-08-17T02:14:15.263Z,5.60
2022-08-17T02:16:43.814Z,6.32
2022-08-17T02:19:15.518Z,6.10
2022-08-17T02:21:45.340Z,5.75
2022-08-17T02:24:18.190Z,5.82
2022-08-17T02:27:06.783Z,5.82
2022-08-17T02:29:34.659Z,5.95
2022-08-17T02:32:02.698Z,6.60
2022-08-17T02:34:31.189Z,6.18
2022-08-17T02:36:58.976Z,6.50
2022-08-17T02:39:28.124Z,7.90
2022-08-17T02:42:02.372Z,7.18
2022-08-17T02:44:39.705Z,7.43
2022-08-17T02:47:09.820Z,7.13
2022-08-17T02:49:38.195Z,7.57
2022-08-17T02:52:08.073Z,7.50
2022-08-17T02:54:39.706Z,7.70
2022-08-17T02:57:10.321Z,7.68
2022-08-17T02:59:38.238Z,7.53
2022-08-17T03:02:08.381Z,7.78
2022-08-17T03:04:36.689Z,8.88
2022-08-17T03:07:05.357Z,8.68
2022-08-17T03:09:33.118Z,8.63
2022-08-17T03:12:08.179Z,8.18
2022-08-17T03:14:41.285Z,8.30
2022-08-17T03:17:09.814Z,8.77
2022-08-17T03:19:42.219Z,9.50
2022-08-17T03:22:34.737Z,7.97
2022-08-17T03:24:59.612Z,8.60
2022-08-17T03:27:28.721Z,9.65
2022-08-17T03:29:56.493Z,8.10
2022-08-17T03:32:24.256Z,8.38
2022-08-17T03:34:52.176Z,9.13
2022-08-17T03:37:19.983Z,8.55
2022-08-17T03:39:47.792Z,8.93
2022-08-17T03:42:32.314Z,8.55
2022-08-17T03:45:03.220Z,8.85
2022-08-17T03:47:48.741Z,9.35
2022-08-17T03:50:35.280Z,8.77
2022-08-17T03:53:24.919Z,7.95
2022-08-17T03:56:10.339Z,8.32
2022-08-17T03:58:38.148Z,8.80
2022-08-17T04:01:08.182Z,8.27
2022-08-17T04:03:36.397Z,9.98
2022-08-17T04:06:05.424Z,9.23
2022-08-17T04:08:33.733Z,8.88
2022-08-17T04:11:02.249Z,9.20
2022-08-17T04:13:30.197Z,9.40
2022-08-17T04:15:59.125Z,9.25
2022-08-17T04:18:28.265Z,9.13
2022-08-17T04:20:56.107Z,8.70
2022-08-17T04:23:28.240Z,10.05
2022-08-17T04:25:56.008Z,8.85
2022-08-17T04:28:23.785Z,9.15
2022-08-17T04:30:51.792Z,9.25
2022-08-17T04:33:23.937Z,10.60
2022-08-17T04:35:54.956Z,8.48
2022-08-17T04:38:25.293Z,9.05
2022-08-17T04:41:11.578Z,8.95
2022-08-17T04:46:10.409Z,7.88
2022-08-17T04:48:40.139Z,7.38
2022-08-17T04:51:13.180Z,7.43
2022-08-17T04:53:42.812Z,6.72
2022-08-17T04:56:16.969Z,6.70
2022-08-17T04:58:50.118Z,6.03
2022-08-17T05:01:23.931Z,5.80
2022-08-17T05:03:52.704Z,6.07
2022-08-17T05:06:22.093Z,6.07
2022-08-17T05:08:49.913Z,6.57
2022-08-17T05:11:17.980Z,6.22
2022-08-17T05:13:45.780Z,6.38
2022-08-17T05:16:13.647Z,5.72
2022-08-17T05:18:41.385Z,5.43
2022-08-17T05:21:09.938Z,5.65
2022-08-17T05:23:43.070Z,5.07
2022-08-17T05:26:25.652Z,5.40
2022-08-17T05:29:00.583Z,5.85
2022-08-17T05:31:31.561Z,6.22
2022-08-17T05:33:59.658Z,5.53
2022-08-17T05:36:42.840Z,5.32
2022-08-17T05:39:16.356Z,5.72
2022-08-17T05:41:46.685Z,5.63
2022-08-17T05:44:14.615Z,5.50
2022-08-17T05:46:46.237Z,5.93
2022-08-17T05:49:17.008Z,5.43
2022-08-17T05:52:00.564Z,6.13
2022-08-17T05:54:40.290Z,5.53
2022-08-17T05:57:24.706Z,5.30
2022-08-17T06:00:01.777Z,5.45
2022-08-17T06:02:47.063Z,4.97
2022-08-17T06:05:26.091Z,4.90
2022-08-17T06:08:00.952Z,4.70
2022-08-17T06:10:48.553Z,5.67
2022-08-17T06:13:25.206Z,5.80
2022-08-17T06:16:02.931Z,5.53
2022-08-17T06:18:45.138Z,4.45
2022-08-17T06:21:15.733Z,5.60
2022-08-17T06:23:49.340Z,5.35
2022-08-17T06:26:22.034Z,5.80
2022-08-17T06:28:59.364Z,5.82
2022-08-17T06:31:32.133Z,6.13
2022-08-17T06:34:02.692Z,5.85
2022-08-17T06:36:53.938Z,6.13
2022-08-17T06:39:34.160Z,5.80
2022-08-17T06:42:53.962Z,5.20
2022-08-17T06:45:08.395Z,5.25
2022-08-17T06:47:40.977Z,5.57
2022-08-17T06:50:15.532Z,5.82
2022-08-17T06:52:51.796Z,6.20
2022-08-17T06:55:26.231Z,6.10
2022-08-17T06:57:59.974Z,5.88
2022-08-17T07:00:40.673Z,6.07
2022-08-17T07:03:18.943Z,6.10
2022-08-17T07:05:57.651Z,5.82
2022-08-17T07:08:35.074Z,5.75
2022-08-17T07:11:07.871Z,6.00
2022-08-17T07:13:49.208Z,5.95
2022-08-17T07:16:24.631Z,6.28
2022-08-17T07:18:54.744Z,6.32
2022-08-17T07:21:39.387Z,6.22
2022-08-17T07:24:26.309Z,6.65
2022-08-17T07:27:11.592Z,6.60
2022-08-17T07:29:46.296Z,5.57
2022-08-17T07:32:18.776Z,6.65
2022-08-17T07:35:08.458Z,5.55
2022-08-17T07:37:40.531Z,5.80
2022-08-17T07:40:18.700Z,6.47
2022-08-17T07:43:03.291Z,5.32
2022-08-17T07:45:53.819Z,5.97
2022-08-17T07:48:25.145Z,5.80
2022-08-17T07:50:53.886Z,6.45
2022-08-17T07:53:24.062Z,6.38
2022-08-17T07:55:53.461Z,6.53
2022-08-17T07:58:23.992Z,6.45
2022-08-17T08:01:08.660Z,5.85
2022-08-17T08:03:42.040Z,6.13
2022-08-17T08:06:20.753Z,5.70
2022-08-17T08:08:53.559Z,5.90
2022-08-17T08:11:32.241Z,5.50
2022-08-17T08:14:21.405Z,5.38
2022-08-17T08:17:02.150Z,5.55
2022-08-17T08:19:31.280Z,5.40
2022-08-17T08:22:06.717Z,6.13
2022-08-17T08:24:55.682Z,5.22
2022-08-17T08:27:33.773Z,5.60
2022-08-17T08:30:07.791Z,6.18
2022-08-17T08:32:53.980Z,5.55
2022-08-17T08:35:30.849Z,5.38
2022-08-17T08:38:07.470Z,5.93
2022-08-17T08:40:47.123Z,5.40
2022-08-17T08:43:26.420Z,5.25
2022-08-17T08:46:05.147Z,5.70
2022-08-17T08:48:58.450Z,5.78
2022-08-17T08:51:39.602Z,5.85
2022-08-17T08:54:16.390Z,6.05
2022-08-17T08:57:21.495Z,5.40
2022-08-17T08:59:58.075Z,5.95
2022-08-17T09:02:40.579Z,5.82
2022-08-17T09:05:19.526Z,5.75
2022-08-17T09:08:00.081Z,5.22
2022-08-17T09:10:34.403Z,6.20
2022-08-17T09:13:15.118Z,5.28
2022-08-17T09:15:48.722Z,5.10
2022-08-17T09:19:00.954Z,5.70
2022-08-17T09:21:21.396Z,6.00
2022-08-17T09:24:04.712Z,5.35
2022-08-17T09:26:37.617Z,5.78
2022-08-17T09:29:10.264Z,5.18
2022-08-17T09:31:50.056Z,5.82
2022-08-17T09:34:31.965Z,5.25
2022-08-17T09:37:12.145Z,5.30
2022-08-17T09:39:45.820Z,5.25
2022-08-17T09:42:22.622Z,5.47
2022-08-17T09:44:56.190Z,5.03
2022-08-17T09:47:30.855Z,5.57
2022-08-17T09:50:04.320Z,5.30
2022-08-17T09:52:33.818Z,5.50
2022-08-17T09:55:02.043Z,7.80
2022-08-17T09:57:51.179Z,5.45
2022-08-17T10:00:24.922Z,5.50
2022-08-17T10:03:06.077Z,5.90
2022-08-17T10:05:41.265Z,5.22
2022-08-17T10:08:21.880Z,5.68
2022-08-17T10:11:00.005Z,5.68
2022-08-17T10:13:38.362Z,5.78
2022-08-17T10:16:14.600Z,6.38
2022-08-17T10:18:51.408Z,6.65
2022-08-17T10:21:37.483Z,6.15
2022-08-17T10:24:28.965Z,8.35
2022-08-17T10:27:00.994Z,6.88
2022-08-17T10:29:49.226Z,6.53
2022-08-17T10:32:26.389Z,6.32
2022-08-17T10:35:11.459Z,6.55
2022-08-17T10:37:52.643Z,6.90
2022-08-17T10:40:33.521Z,7.50
2022-08-17T10:43:13.343Z,6.70
2022-08-17T10:46:10.510Z,7.63
2022-08-17T10:48:42.207Z,7.68
2022-08-17T10:51:12.517Z,6.00
2022-08-17T10:53:54.693Z,5.80
2022-08-17T10:56:39.189Z,5.55
2022-08-17T10:59:07.017Z,6.07
2022-08-17T11:02:00.901Z,6.00
2022-08-17T11:04:46.293Z,6.55
2022-08-17T11:07:21.696Z,5.80
2022-08-17T11:10:10.417Z,6.50
2022-08-17T11:12:51.288Z,5.85
2022-08-17T11:15:31.245Z,5.63
2022-08-17T11:18:19.712Z,6.63
2022-08-17T11:21:03.801Z,6.50
2022-08-17T11:24:08.578Z,5.95
2022-08-17T11:26:38.938Z,5.50
2022-08-17T11:29:18.666Z,6.28
2022-08-17T11:32:01.103Z,5.50
2022-08-17T11:34:30.888Z,5.53
2022-08-17T11:37:37.128Z,5.07
2022-08-17T11:40:32.257Z,4.10
2022-08-17T11:43:15.260Z,4.70
2022-08-17T11:46:03.743Z,4.32
2022-08-17T11:48:56.572Z,4.72
2022-08-17T11:51:45.149Z,4.47
2022-08-17T11:54:39.231Z,4.45
2022-08-17T11:57:40.683Z,4.30
2022-08-17T12:00:30.052Z,4.78
2022-08-17T12:03:24.667Z,4.47
2022-08-17T12:06:01.938Z,4.88
2022-08-17T12:08:32.519Z,4.38
2022-08-17T12:11:07.165Z,4.85
2022-08-17T12:13:44.242Z,4.63
2022-08-17T12:16:16.266Z,4.35
2022-08-17T12:18:52.131Z,4.63
2022-08-17T12:21:37.218Z,5.38
2022-08-17T12:24:14.147Z,5.07
2022-08-17T12:26:45.145Z,4.82
2022-08-17T12:29:18.020Z,4.68
2022-08-17T12:32:04.649Z,4.63
2022-08-17T12:34:37.084Z,3.92
2022-08-17T12:37:14.509Z,4.07
2022-08-17T12:39:53.645Z,4.07
2022-08-17T12:42:32.027Z,4.25
2022-08-17T12:45:00.196Z,4.22
2022-08-17T12:47:31.732Z,4.05
2022-08-17T12:50:29.655Z,3.80
2022-08-17T12:53:01.709Z,4.30
2022-08-17T12:55:35.650Z,3.70
2022-08-17T12:58:04.946Z,4.53
2022-08-17T13:00:37.869Z,3.70
2022-08-17T13:03:09.012Z,4.57
2022-08-17T13:05:40.057Z,4.50
2022-08-17T13:08:17.116Z,4.63
2022-08-17T13:10:54.677Z,4.32
2022-08-17T13:13:27.401Z,4.68
2022-08-17T13:15:58.028Z,4.55
2022-08-17T13:18:42.688Z,4.22
2022-08-17T13:21:19.038Z,5.07
2022-08-17T13:23:56.928Z,5.10
2022-08-17T13:26:31.177Z,4.50
2022-08-17T13:29:01.157Z,4.28
2022-08-17T13:31:39.410Z,4.25
2022-08-17T13:34:38.104Z,3.97
2022-08-17T13:37:32.297Z,4.57
2022-08-17T13:40:22.297Z,5.63
2022-08-17T13:42:54.062Z,4.10
2022-08-17T13:45:51.573Z,4.38
2022-08-17T13:48:26.703Z,3.90
2022-08-17T13:51:14.949Z,4.32
2022-08-17T13:53:59.177Z,4.10
2022-08-17T13:56:38.902Z,4.15
2022-08-17T13:59:11.006Z,4.07
2022-08-17T14:01:43.562Z,4.43
2022-08-17T14:04:15.049Z,3.90
2022-08-17T14:06:54.207Z,3.72
2022-08-17T14:09:24.729Z,3.92
2022-08-17T14:11:53.957Z,3.90
2022-08-17T14:14:23.557Z,3.90
2022-08-17T14:16:53.334Z,3.90
2022-08-17T14:19:22.069Z,4.22
2022-08-17T14:21:50.260Z,3.45
2022-08-17T14:24:23.331Z,4.38
2022-08-17T14:26:52.825Z,4.82
2022-08-17T14:29:21.019Z,4.03
2022-08-17T14:31:54.190Z,3.92
2022-08-17T14:34:25.046Z,4.40
2022-08-17T14:36:53.302Z,4.07
2022-08-17T14:39:21.377Z,4.32
2022-08-17T14:41:49.893Z,3.80
2022-08-17T14:44:17.665Z,4.10
2022-08-17T14:46:46.137Z,3.88
2022-08-17T14:49:15.552Z,4.13
2022-08-17T14:51:44.895Z,3.90
2022-08-17T14:54:32.881Z,3.65
2022-08-17T14:57:22.642Z,3.90
2022-08-17T14:59:53.365Z,3.70
2022-08-17T15:02:30.519Z,3.80
2022-08-17T15:05:03.052Z,3.42
2022-08-17T15:07:32.268Z,3.90
2022-08-17T15:10:01.355Z,3.85
2022-08-17T15:12:34.579Z,3.88
2022-08-17T15:15:04.565Z,3.53
2022-08-17T15:17:45.063Z,3.70
2022-08-17T15:20:15.645Z,3.38
2022-08-17T15:22:46.182Z,3.80
2022-08-17T15:25:15.024Z,3.85
2022-08-17T15:27:43.878Z,3.45
2022-08-17T15:30:12.815Z,3.78
2022-08-17T15:32:45.656Z,3.35
2022-08-17T15:35:18.624Z,3.78
2022-08-17T15:37:47.780Z,4.68
2022-08-17T15:40:15.572Z,3.50
2022-08-17T15:42:43.344Z,3.50
2022-08-17T15:45:13.414Z,3.85
2022-08-17T15:47:42.860Z,3.72
2022-08-17T15:50:11.617Z,3.42
2022-08-17T15:52:40.528Z,3.80
2022-08-17T15:55:12.932Z,3.55
2022-08-17T15:57:40.806Z,3.95
2022-08-17T16:00:11.084Z,3.33
2022-08-17T16:03:44.679Z,3.55
2022-08-17T16:05:28.410Z,3.60
2022-08-17T16:07:59.464Z,3.78
2022-08-17T16:10:33.940Z,3.28
2022-08-17T16:13:04.505Z,3.70
2022-08-17T16:15:32.796Z,3.45
2022-08-17T16:18:00.914Z,3.75
2022-08-17T16:20:30.533Z,3.20
2022-08-17T16:22:58.723Z,3.55
2022-08-17T16:25:38.353Z,3.60
2022-08-17T16:28:19.623Z,3.15
2022-08-17T16:30:47.373Z,3.55
2022-08-17T16:33:16.605Z,3.65
2022-08-17T16:35:44.398Z,3.67
2022-08-17T16:38:12.434Z,3.70
2022-08-17T16:40:42.344Z,3.28
2022-08-17T16:43:11.895Z,3.45
2022-08-17T16:45:40.511Z,3.50
2022-08-17T16:48:09.735Z,3.15
2022-08-17T16:50:37.927Z,3.25
2022-08-17T16:53:07.614Z,3.72
2022-08-17T16:55:36.448Z,3.95
2022-08-17T16:58:08.667Z,3.83
2022-08-17T17:00:37.119Z,3.63
2022-08-17T17:03:19.068Z,4.05
2022-08-17T17:06:03.683Z,3.60
2022-08-17T17:08:40.820Z,3.78
2022-08-17T17:11:15.800Z,3.42
2022-08-17T17:13:54.030Z,4.05
2022-08-17T17:16:26.212Z,3.67
2022-08-17T17:19:08.908Z,3.22
2022-08-17T17:21:43.385Z,3.25
2022-08-17T17:24:16.691Z,3.27
2022-08-17T17:27:09.347Z,3.25
2022-08-17T17:29:49.301Z,3.60
2022-08-17T17:32:22.988Z,4.30
2022-08-17T17:35:02.095Z,3.30
2022-08-17T17:37:33.901Z,3.50
2022-08-17T17:40:05.914Z,3.50
2022-08-17T17:42:35.469Z,3.45
2022-08-17T17:45:13.113Z,4.30
2022-08-17T17:47:41.034Z,4.20
2022-08-17T17:50:09.668Z,4.00
2022-08-17T17:52:47.285Z,3.45
2022-08-17T17:55:34.583Z,4.45
2022-08-17T17:58:14.584Z,4.05
2022-08-17T18:00:50.033Z,3.85
2022-08-17T18:03:26.679Z,3.97
2022-08-17T18:06:17.425Z,4.05
2022-08-17T18:09:03.603Z,4.38
2022-08-17T18:11:53.874Z,3.60
2022-08-17T18:14:38.459Z,3.70
2022-08-17T18:17:07.972Z,4.32
2022-08-17T18:19:39.943Z,4.13
2022-08-17T18:22:13.088Z,3.90
2022-08-17T18:24:44.872Z,4.18
2022-08-17T18:27:23.140Z,4.55
2022-08-17T18:29:53.684Z,4.22
2022-08-17T18:32:35.689Z,4.65
2022-08-17T18:35:28.469Z,4.78
2022-08-17T18:37:58.904Z,5.07
2022-08-17T18:40:37.473Z,5.95
2022-08-17T18:43:12.175Z,6.32
2022-08-17T18:45:45.646Z,5.63
2022-08-17T18:48:33.065Z,6.07
2022-08-17T18:51:04.961Z,5.75
2022-08-17T18:53:37.596Z,5.22
2022-08-17T18:56:27.965Z,5.15
2022-08-17T18:59:19.788Z,5.85
2022-08-17T19:02:10.175Z,5.05
2022-08-17T19:04:56.599Z,4.85
2022-08-17T19:07:31.979Z,5.18
2022-08-17T19:12:38.000Z,5.00
2022-08-17T19:15:09.154Z,4.85
2022-08-17T19:17:43.175Z,5.53
2022-08-17T19:20:20.353Z,5.32
2022-08-17T19:23:07.840Z,5.35
2022-08-17T19:28:21.639Z,4.65
2022-08-17T19:30:51.677Z,5.15
2022-08-17T19:33:20.162Z,5.00
2022-08-17T19:35:57.253Z,5.35
2022-08-17T19:38:39.737Z,4.75
2022-08-17T19:41:14.071Z,5.00
2022-08-17T19:44:17.249Z,5.10
2022-08-17T19:46:56.101Z,4.70
2022-08-17T19:49:40.865Z,5.63
2022-08-17T19:52:28.669Z,5.83
2022-08-17T19:55:01.462Z,4.78
2022-08-17T19:57:44.809Z,5.22
2022-08-17T20:00:16.240Z,5.40
2022-08-17T20:02:54.847Z,4.97
2022-08-17T20:05:26.315Z,4.50
2022-08-17T20:08:01.845Z,4.80
2022-08-17T20:15:40.195Z,4.80
2022-08-17T20:18:15.169Z,4.15
2022-08-17T20:20:54.961Z,4.35
2022-08-17T20:23:46.813Z,4.97
2022-08-17T20:26:22.027Z,5.35
2022-08-17T20:29:05.940Z,5.18
2022-08-17T20:31:47.062Z,5.45
2022-08-17T20:34:37.443Z,5.28
2022-08-17T20:37:08.948Z,4.88
2022-08-17T20:39:42.365Z,4.97
2022-08-17T20:42:29.452Z,4.43
2022-08-17T20:44:59.113Z,4.82
2022-08-17T20:47:30.537Z,4.70
2022-08-17T20:50:03.013Z,4.63
2022-08-17T20:52:52.814Z,4.38
2022-08-17T20:55:55.452Z,4.50
2022-08-17T20:58:48.765Z,4.35
2022-08-17T21:01:24.120Z,5.60
2022-08-17T21:06:25.924Z,5.22
2022-08-17T21:08:58.593Z,4.55
2022-08-17T21:12:02.522Z,5.13
2022-08-17T21:14:58.521Z,4.93
2022-08-17T21:17:39.578Z,4.93
2022-08-17T21:20:22.904Z,5.20
2022-08-17T21:23:07.009Z,5.13
2022-08-17T21:26:10.166Z,4.30
2022-08-17T21:29:00.965Z,4.30
2022-08-17T21:31:34.820Z,5.20
2022-08-17T21:34:25.721Z,4.72
2022-08-17T21:36:53.562Z,4.60
2022-08-17T21:39:33.255Z,5.30
2022-08-17T21:42:01.639Z,4.40
2022-08-17T21:44:35.412Z,5.10
2022-08-17T21:47:19.876Z,4.93
2022-08-17T21:49:47.646Z,4.80
2022-08-17T21:52:17.588Z,4.72
2022-08-17T21:54:52.009Z,5.32
2022-08-17T21:57:23.948Z,4.97
2022-08-17T21:59:56.999Z,5.03
2022-08-17T22:02:36.033Z,5.45
2022-08-17T22:05:07.605Z,5.07
2022-08-17T22:07:39.192Z,4.70
2022-08-17T22:10:27.448Z,5.28
2022-08-17T22:13:16.414Z,4.82
2022-08-17T22:15:49.076Z,4.38
2022-08-17T22:18:23.721Z,5.15
2022-08-17T22:20:53.972Z,5.18
2022-08-17T22:23:44.856Z,5.80
2022-08-17T22:26:15.484Z,5.43
2022-08-17T22:28:48.785Z,5.50
2022-08-17T22:31:20.329Z,5.38
2022-08-17T22:33:49.977Z,5.25
2022-08-17T22:36:25.027Z,7.05
2022-08-17T22:38:54.673Z,7.10
2022-08-17T22:41:31.721Z,6.53
2022-08-17T22:44:10.016Z,6.70
2022-08-17T22:46:48.280Z,6.90
2022-08-17T22:49:23.232Z,6.65
2022-08-17T22:51:59.388Z,5.68
2022-08-17T22:54:47.053Z,6.03
2022-08-17T22:57:33.986Z,5.50
2022-08-17T23:00:02.062Z,5.95
2022-08-17T23:02:33.625Z,6.03
2022-08-17T23:05:21.253Z,6.18
2022-08-17T23:07:53.782Z,6.68
2022-08-17T23:10:21.557Z,6.00
2022-08-17T23:12:49.406Z,5.90
2022-08-17T23:15:19.530Z,6.13
2022-08-17T23:17:48.814Z,5.22
2022-08-17T23:20:17.446Z,5.80
2022-08-17T23:22:52.725Z,6.13
2022-08-17T23:27:54.389Z,6.13
2022-08-17T23:30:27.135Z,6.00
2022-08-17T23:32:56.757Z,6.13
2022-08-17T23:35:39.116Z,6.03
2022-08-17T23:38:09.551Z,5.88
2022-08-17T23:40:37.763Z,5.55
2022-08-17T23:43:23.402Z,5.85
2022-08-17T23:45:53.696Z,6.43
2022-08-17T23:48:36.314Z,5.53
2022-08-17T23:51:08.991Z,5.28
2022-08-17T23:53:38.100Z,5.43
2022-08-17T23:56:10.410Z,5.07
2022-08-17T23:58:39.323Z,4.93
